Time;durP1;ratioP1;P1;durP2;ratioP2;P2;SDS_P1;SDS_P2;PMS_P1;PMS_P2;Temp;Humidity;BMP_temperature;BMP_pressure;BME280_temperature;BME280_humidity;BME280_pressure;Samples;Min_cycle;Max_cycle;Signal;HPM_P1;HPM_P2
2023/12/18 00:00:06;;;;;;;11.20;6.30;;;;;;;5.36;100.00;100950.28;4935741;29;20034;-85
2023/12/18 00:02:31;;;;;;;8.73;5.25;;;;;;;5.18;100.00;100912.47;4935388;29;20059;-85
2023/12/18 00:04:56;;;;;;;15.77;8.48;;;;;;;5.25;100.00;100911.56;4935599;29;20062;-85
2023/12/18 00:07:22;;;;;;;13.35;7.05;;;;;;;5.32;100.00;100916.72;4935676;29;20056;-85
2023/12/18 00:09:48;;;;;;;6.68;3.85;;;;;;;5.53;100.00;100942.44;4935384;29;20028;-85
2023/12/18 00:12:13;;;;;;;6.57;3.90;;;;;;;5.44;100.00;100908.91;4935069;29;20047;-85
2023/12/18 00:14:38;;;;;;;10.02;5.22;;;;;;;5.37;100.00;100891.72;4935359;29;20074;-85
2023/12/18 00:17:03;;;;;;;9.43;4.72;;;;;;;5.64;100.00;100927.72;4935514;29;20024;-85
2023/12/18 00:19:29;;;;;;;4.70;3.42;;;;;;;5.63;100.00;100910.50;4935870;29;20035;-85
2023/12/18 00:21:54;;;;;;;6.20;4.07;;;;;;;5.45;100.00;100882.19;4935615;29;20044;-84
2023/12/18 00:24:20;;;;;;;7.93;4.28;;;;;;;5.75;100.00;100920.75;4935287;29;20039;-85
2023/12/18 00:26:45;;;;;;;5.45;3.83;;;;;;;5.54;100.00;100873.53;4935081;29;20122;-85
2023/12/18 00:29:10;;;;;;;6.22;4.32;;;;;;;5.80;100.00;100914.69;4935578;29;20031;-85
2023/12/18 00:31:36;;;;;;;5.20;3.72;;;;;;;5.82;100.00;100912.97;4934601;29;20074;-85
2023/12/18 00:34:01;;;;;;;7.57;4.30;;;;;;;5.81;100.00;100912.09;4935233;29;20028;-85
2023/12/18 00:36:26;;;;;;;6.85;4.45;;;;;;;5.43;100.00;100842.56;4918104;29;20028;-85
2023/12/18 00:38:51;;;;;;;5.72;3.95;;;;;;;5.84;100.00;100909.50;4934686;29;20024;-85
2023/12/18 00:41:18;;;;;;;8.50;4.63;;;;;;;5.82;100.00;100898.31;4935098;29;20414;-85
2023/12/18 00:43:43;;;;;;;8.98;4.30;;;;;;;5.79;100.00;100888.00;4934781;29;20111;-85
2023/12/18 00:46:09;;;;;;;5.45;4.10;;;;;;;5.82;100.00;100903.50;4935418;29;20119;-85
2023/12/18 00:48:35;;;;;;;7.82;5.13;;;;;;;5.87;100.00;100906.03;4934895;29;20028;-85
2023/12/18 00:51:00;;;;;;;8.18;4.75;;;;;;;5.82;100.00;100898.31;4935031;29;20127;-85
2023/12/18 00:53:25;;;;;;;7.55;4.22;;;;;;;5.81;100.00;100890.56;4935101;29;20449;-85
2023/12/18 00:55:51;;;;;;;6.32;4.03;;;;;;;5.64;100.00;100863.09;4917579;29;20028;-85
2023/12/18 00:58:16;;;;;;;6.78;4.05;;;;;;;5.63;100.00;100858.81;4935279;29;20435;-85
2023/12/18 01:00:41;;;;;;;7.18;4.50;;;;;;;5.69;100.00;100873.44;4934834;29;20042;-85
2023/12/18 01:03:07;;;;;;;5.72;4.32;;;;;;;5.57;100.00;100832.16;4934913;29;20055;-85
2023/12/18 01:05:32;;;;;;;6.85;4.03;;;;;;;5.76;100.00;100872.50;4934742;29;20110;-85
2023/12/18 01:07:58;;;;;;;5.10;3.40;;;;;;;5.94;100.00;100895.69;4934937;29;20034;-85
2023/12/18 01:10:23;;;;;;;5.45;3.47;;;;;;;5.86;100.00;100889.69;4934655;29;20153;-85
2023/12/18 01:12:48;;;;;;;5.85;3.53;;;;;;;5.88;100.00;100880.16;4917692;29;20035;-85
2023/12/18 01:15:14;;;;;;;6.18;3.50;;;;;;;6.02;100.00;100910.25;4934923;29;20027;-85
2023/12/18 01:17:39;;;;;;;8.25;3.88;;;;;;;5.90;100.00;100888.78;4934703;29;20026;-85
2023/12/18 01:20:06;;;;;;;5.80;3.50;;;;;;;5.80;100.00;100866.44;4917793;29;20120;-85
2023/12/18 01:22:31;;;;;;;5.05;3.60;;;;;;;5.96;100.00;100890.50;4934688;29;20032;-85
2023/12/18 01:24:56;;;;;;;7.22;3.17;;;;;;;5.97;100.00;100887.03;4917688;29;20028;-85
2023/12/18 01:27:22;;;;;;;5.68;3.80;;;;;;;5.86;100.00;100860.38;4934873;29;20027;-85
2023/12/18 01:29:47;;;;;;;3.92;2.83;;;;;;;5.88;100.00;100856.91;4934644;29;20027;-85
2023/12/18 01:32:12;;;;;;;5.03;3.05;;;;;;;5.84;100.00;100844.00;4934875;29;20031;-85
2023/12/18 01:34:38;;;;;;;5.55;2.85;;;;;;;5.89;100.00;100853.44;4934527;29;20028;-85
2023/12/18 01:37:05;;;;;;;4.38;2.90;;;;;;;5.99;100.00;100868.06;4934444;29;20022;-85
2023/12/18 01:39:31;;;;;;;4.53;3.03;;;;;;;5.87;100.00;100837.09;4917523;29;20032;-85
2023/12/18 01:41:56;;;;;;;4.53;2.92;;;;;;;6.00;100.00;100845.63;4934520;29;20024;-85
2023/12/18 01:44:22;;;;;;;5.22;2.75;;;;;;;5.94;100.00;100823.28;4933321;29;20106;-85
2023/12/18 01:46:47;;;;;;;3.30;2.75;;;;;;;6.14;100.00;100859.28;4917068;29;20024;-85
2023/12/18 01:49:12;;;;;;;4.72;2.75;;;;;;;6.13;100.00;100846.38;4934610;29;20118;-85
2023/12/18 01:51:39;;;;;;;6.00;2.97;;;;;;;5.85;100.00;100797.44;4933176;29;20058;-85
2023/12/18 01:54:06;;;;;;;4.93;2.70;;;;;;;5.97;100.00;100807.72;4937753;29;20496;-85
2023/12/18 01:56:33;;;;;;;4.05;2.53;;;;;;;5.99;100.00;100808.56;4938453;29;20457;-85
2023/12/18 01:59:01;;;;;;;3.90;2.70;;;;;;;6.29;100.00;100847.09;4938231;29;20082;-85
2023/12/18 02:01:30;;;;;;;3.33;2.35;;;;;;;6.22;100.00;100830.75;4938217;29;20059;-85
2023/12/18 02:03:56;;;;;;;4.90;2.58;;;;;;;6.04;100.00;100805.94;4934138;29;20095;-85
2023/12/18 02:06:22;;;;;;;3.15;2.42;;;;;;;6.27;100.00;100844.50;4952052;29;20035;-85
2023/12/18 02:08:47;;;;;;;3.78;2.80;;;;;;;5.96;100.00;100785.31;4933094;29;20066;-85
2023/12/18 02:11:13;;;;;;;4.93;3.10;;;;;;;6.21;100.00;100835.09;4941145;29;20078;-85
2023/12/18 02:13:41;;;;;;;6.15;3.08;;;;;;;6.08;100.00;100806.78;4937507;29;20023;-85
2023/12/18 02:16:08;;;;;;;4.30;2.60;;;;;;;6.12;100.00;100821.41;4937645;29;20035;-85
2023/12/18 02:18:33;;;;;;;3.97;3.05;;;;;;;5.90;100.00;100789.66;4920470;29;20028;-85
2023/12/18 02:20:58;;;;;;;4.97;3.20;;;;;;;6.21;100.00;100849.75;4937640;29;20031;-85
2023/12/18 02:23:24;;;;;;;4.78;2.80;;;;;;;5.95;100.00;100790.50;4920294;29;20031;-85
2023/12/18 02:25:50;;;;;;;3.67;2.40;;;;;;;6.10;100.00;100812.78;4937183;29;20042;-85
2023/12/18 02:28:16;;;;;;;4.65;2.97;;;;;;;6.20;100.00;100832.53;4936152;29;20028;-85
2023/12/18 02:30:42;;;;;;;4.30;2.88;;;;;;;6.03;100.00;100796.47;4937225;29;20115;-85
2023/12/18 02:33:07;;;;;;;3.65;3.10;;;;;;;6.27;100.00;100843.66;4920265;29;20163;-85
2023/12/18 02:35:33;;;;;;;2.78;2.22;;;;;;;5.91;100.00;100781.91;4937045;29;20066;-85
2023/12/18 02:37:58;;;;;;;3.97;2.30;;;;;;;6.19;100.00;100830.78;4936885;29;20034;-85
2023/12/18 02:40:25;;;;;;;3.63;2.67;;;;;;;6.32;100.00;100840.16;4937208;29;20466;-85
2023/12/18 02:42:50;;;;;;;4.47;2.83;;;;;;;6.12;100.00;100805.88;4937162;29;20110;-85
2023/12/18 02:45:15;;;;;;;3.47;2.60;;;;;;;6.23;100.00;100822.13;4919997;29;20072;-85
2023/12/18 02:47:41;;;;;;;4.47;3.10;;;;;;;6.07;100.00;100790.41;4935598;29;20028;-85
2023/12/18 02:50:06;;;;;;;3.80;2.80;;;;;;;6.31;100.00;100837.56;4937017;29;20028;-85
2023/12/18 02:52:32;;;;;;;3.85;2.78;;;;;;;6.04;100.00;100797.31;4937006;29;20133;-85
2023/12/18 02:54:57;;;;;;;3.30;2.65;;;;;;;5.93;100.00;100779.31;4936892;29;20497;-85
2023/12/18 02:57:22;;;;;;;2.78;2.47;;;;;;;6.18;100.00;100831.66;4936660;29;20032;-85
2023/12/18 02:59:48;;;;;;;3.60;2.78;;;;;;;5.99;100.00;100806.00;4919519;29;20031;-85
2023/12/18 03:02:13;;;;;;;3.75;2.50;;;;;;;5.93;100.00;100800.00;4936737;29;20068;-85
2023/12/18 03:04:41;;;;;;;5.00;3.10;;;;;;;5.68;100.00;100750.22;4935505;29;20472;-85
2023/12/18 03:07:08;;;;;;;5.88;2.67;;;;;;;6.13;100.00;100826.53;4936578;29;20461;-85
2023/12/18 03:09:33;;;;;;;3.40;2.78;;;;;;;6.14;100.00;100827.38;4919635;29;20040;-85
2023/12/18 03:11:59;;;;;;;3.75;2.47;;;;;;;5.86;100.00;100777.66;4935995;29;20051;-85
2023/12/18 03:14:24;;;;;;;2.67;2.35;;;;;;;6.10;100.00;100815.34;4936660;29;20442;-85
2023/12/18 03:16:49;;;;;;;2.47;2.28;;;;;;;6.15;100.00;100829.97;4936275;29;20059;-85
2023/12/18 03:19:15;;;;;;;2.58;2.10;;;;;;;5.88;100.00;100784.50;4919311;29;20122;-85
2023/12/18 03:21:41;;;;;;;5.15;2.72;;;;;;;6.03;100.00;100813.72;4936246;29;20111;-85
2023/12/18 03:24:07;;;;;;;3.63;2.72;;;;;;;5.93;100.00;100797.41;4936393;29;20115;-85
2023/12/18 03:26:32;;;;;;;5.13;2.85;;;;;;;6.05;100.00;100827.47;4935987;29;20206;-85
2023/12/18 03:28:57;;;;;;;3.88;3.28;;;;;;;5.97;100.00;100824.97;4935841;29;20311;-85
2023/12/18 03:31:23;;;;;;;5.75;3.33;;;;;;;5.99;100.00;100834.44;4936180;29;20115;-85
2023/12/18 03:33:48;;;;;;;4.32;3.35;;;;;;;5.71;100.00;100783.78;4935768;29;20118;-85
2023/12/18 03:36:13;;;;;;;5.10;3.33;;;;;;;5.90;100.00;100837.06;4936168;29;20107;-85
2023/12/18 03:38:39;;;;;;;4.55;2.97;;;;;;;5.67;100.00;100795.88;4919056;29;20062;-85
2023/12/18 03:41:04;;;;;;;5.35;3.85;;;;;;;5.71;100.00;100807.91;4935839;29;20027;-85
2023/12/18 03:43:29;;;;;;;7.38;3.35;;;;;;;5.74;100.00;100820.81;4935828;29;20063;-85
2023/12/18 03:45:54;;;;;;;4.53;2.83;;;;;;;5.75;100.00;100817.34;4935671;29;20126;-85
2023/12/18 03:48:20;;;;;;;4.50;3.05;;;;;;;5.61;100.00;100797.69;4918953;29;20032;-85
2023/12/18 03:50:46;;;;;;;4.72;3.38;;;;;;;5.62;100.00;100804.56;4918562;29;20485;-85
2023/12/18 03:53:11;;;;;;;4.53;3.00;;;;;;;5.61;100.00;100810.59;4935835;29;20046;-85
2023/12/18 03:55:38;;;;;;;3.80;2.90;;;;;;;5.58;100.00;100793.38;4918657;29;20032;-85
2023/12/18 03:58:03;;;;;;;5.32;2.67;;;;;;;5.54;100.00;100786.50;4935548;29;20035;-85
2023/12/18 04:00:29;;;;;;;3.83;2.83;;;;;;;5.58;100.00;100805.44;4935541;29;20042;-85
2023/12/18 04:02:54;;;;;;;4.10;2.70;;;;;;;5.30;100.00;100758.28;4935080;29;20064;-85
2023/12/18 04:05:20;;;;;;;5.60;3.80;;;;;;;5.58;100.00;100801.13;4935702;29;20070;-85
2023/12/18 04:07:46;;;;;;;8.43;4.03;;;;;;;5.39;100.00;100763.38;4935102;29;20159;-85
2023/12/18 04:10:11;;;;;;;8.02;4.05;;;;;;;5.41;100.00;100780.59;4935355;29;20058;-85
2023/12/18 04:12:37;;;;;;;6.18;3.90;;;;;;;5.57;100.00;100806.31;4935295;29;20036;-85
2023/12/18 04:15:04;;;;;;;5.65;3.70;;;;;;;5.63;100.00;100819.19;4935083;29;20512;-85
2023/12/18 04:17:29;;;;;;;4.25;3.33;;;;;;;5.62;100.00;100826.09;4934207;29;20110;-85
2023/12/18 04:19:55;;;;;;;4.72;3.05;;;;;;;5.68;100.00;100833.78;4934036;29;20092;-85
2023/12/18 04:22:20;;;;;;;4.47;2.90;;;;;;;5.59;100.00;100825.25;4935436;29;20023;-85
2023/12/18 04:24:46;;;;;;;4.38;2.90;;;;;;;5.37;100.00;100788.38;4934909;29;20036;-85
2023/12/18 04:27:11;;;;;;;4.15;3.30;;;;;;;5.54;100.00;100820.13;4935695;29;20070;-85
2023/12/18 04:29:37;;;;;;;5.60;3.17;;;;;;;5.60;100.00;100829.53;4918298;29;20384;-85
2023/12/18 04:32:06;;;;;;;3.78;3.22;;;;;;;5.57;100.00;100829.59;4918111;29;20035;-85
2023/12/18 04:34:31;;;;;;;4.68;3.50;;;;;;;5.37;100.00;100796.97;4935313;29;20119;-85
2023/12/18 04:36:57;;;;;;;5.60;3.85;;;;;;;5.41;100.00;100809.00;4917953;29;20055;-85
2023/12/18 04:39:22;;;;;;;3.70;3.03;;;;;;;5.37;100.00;100798.72;4935330;29;20110;-85
2023/12/18 04:41:48;;;;;;;5.18;3.85;;;;;;;5.59;100.00;100836.44;4935032;29;20441;-85
2023/12/18 04:44:14;;;;;;;4.97;3.30;;;;;;;5.36;100.00;100797.00;4935167;29;20038;-85
2023/12/18 04:46:40;;;;;;;4.30;3.38;;;;;;;5.39;100.00;100802.13;4918202;29;20536;-85
2023/12/18 04:49:05;;;;;;;5.22;3.65;;;;;;;5.53;100.00;100822.72;4934956;29;20038;-85
2023/12/18 04:51:31;;;;;;;4.95;3.70;;;;;;;5.44;100.00;100808.13;4935240;29;20028;-85
2023/12/18 04:53:56;;;;;;;5.60;3.65;;;;;;;5.27;100.00;100779.84;4934978;29;20040;-85
2023/12/18 04:56:22;;;;;;;6.80;3.70;;;;;;;5.46;100.00;100809.81;4935013;29;20019;-85
2023/12/18 04:58:47;;;;;;;7.80;4.43;;;;;;;5.28;100.00;100778.97;4934834;29;20477;-85
2023/12/18 05:01:13;;;;;;;7.45;4.57;;;;;;;5.33;100.00;100789.25;4935094;29;20119;-85
2023/12/18 05:03:38;;;;;;;7.28;4.97;;;;;;;5.54;100.00;100825.28;4933797;29;20031;-85
2023/12/18 05:06:04;;;;;;;6.50;4.78;;;;;;;5.61;100.00;100824.38;4934835;29;20054;-85
2023/12/18 05:08:29;;;;;;;5.43;4.05;;;;;;;5.50;100.00;100803.78;4917966;29;20031;-85
2023/12/18 05:10:55;;;;;;;5.15;4.03;;;;;;;5.55;100.00;100818.38;4934656;29;20054;-85
2023/12/18 05:13:20;;;;;;;3.95;3.13;;;;;;;5.64;100.00;100829.50;4934963;29;20159;-85
2023/12/18 05:15:46;;;;;;;3.75;2.80;;;;;;;5.15;100.00;100739.44;4935076;29;20310;-85
2023/12/18 05:18:11;;;;;;;4.47;3.38;;;;;;;5.66;100.00;100824.34;4935124;29;20024;-85
2023/12/18 05:20:37;;;;;;;4.03;2.88;;;;;;;5.68;100.00;100832.91;4934605;29;20473;-85
2023/12/18 05:23:02;;;;;;;4.30;3.10;;;;;;;5.46;100.00;100786.56;4917575;29;20039;-85
2023/12/18 05:25:27;;;;;;;4.45;3.25;;;;;;;5.69;100.00;100821.75;4934950;29;20646;-85
2023/12/18 05:27:53;;;;;;;7.82;4.10;;;;;;;5.66;100.00;100817.44;4918669;29;20358;-85
2023/12/18 05:30:18;;;;;;;6.43;4.38;;;;;;;5.50;100.00;100788.25;4921489;29;20392;-85
2023/12/18 05:32:44;;;;;;;6.57;4.10;;;;;;;5.59;100.00;100802.84;4938586;29;20087;-85
2023/12/18 05:35:09;;;;;;;4.68;3.08;;;;;;;5.59;100.00;100805.44;4938382;29;20035;-86
2023/12/18 05:37:34;;;;;;;5.20;3.50;;;;;;;5.45;100.00;100782.28;4921433;29;20354;-85
2023/12/18 05:40:00;;;;;;;5.28;3.90;;;;;;;5.53;100.00;100786.53;4937950;29;20091;-86
2023/12/18 05:42:25;;;;;;;5.13;3.58;;;;;;;5.58;100.00;100800.28;4938201;29;20030;-86
2023/12/18 05:44:50;;;;;;;7.20;4.25;;;;;;;5.72;100.00;100814.78;4937761;29;20070;-86
2023/12/18 05:47:16;;;;;;;11.77;6.63;;;;;;;5.59;100.00;100783.91;4937919;29;20370;-86
2023/12/18 05:49:41;;;;;;;15.18;7.78;;;;;;;5.79;100.00;100820.78;4916476;29;20047;-86
2023/12/18 05:52:06;;;;;;;10.50;5.93;;;;;;;5.65;100.00;100810.56;4916374;29;20545;-86
2023/12/18 05:54:32;;;;;;;7.97;4.55;;;;;;;5.63;100.00;100794.19;4916603;29;20040;-86
2023/12/18 05:56:57;;;;;;;11.32;5.53;;;;;;;5.78;100.00;100818.22;4916386;29;20039;-86
2023/12/18 05:59:22;;;;;;;8.57;5.38;;;;;;;5.84;100.00;100834.53;4916570;29;20044;-86
2023/12/18 06:01:48;;;;;;;5.00;3.58;;;;;;;5.81;100.00;100824.19;4916555;29;20055;-86
2023/12/18 06:04:13;;;;;;;4.75;3.53;;;;;;;5.76;100.00;100818.22;4915928;29;20076;-86
2023/12/18 06:06:39;;;;;;;5.47;3.65;;;;;;;5.73;100.00;100815.66;4916371;29;20036;-86
2023/12/18 06:09:04;;;;;;;4.43;3.42;;;;;;;5.45;100.00;100773.69;4916057;29;20061;-86
2023/12/18 06:11:29;;;;;;;7.47;3.92;;;;;;;5.76;100.00;100823.38;4915998;29;20052;-86
2023/12/18 06:13:56;;;;;;;7.75;4.25;;;;;;;5.73;100.00;100819.13;4916361;29;20027;-86
2023/12/18 06:16:21;;;;;;;4.28;3.50;;;;;;;5.64;100.00;100807.97;4916177;29;20084;-86
2023/12/18 06:18:46;;;;;;;4.50;3.28;;;;;;;5.68;100.00;100804.50;4916126;29;20450;-86
2023/12/18 06:21:12;;;;;;;5.63;4.03;;;;;;;5.48;100.00;100771.06;4930281;29;20501;-86
2023/12/18 06:23:37;;;;;;;5.28;3.45;;;;;;;5.76;100.00;100811.31;4937551;29;20103;-86
2023/12/18 06:26:04;;;;;;;4.45;3.15;;;;;;;5.71;100.00;100815.66;4920267;29;20032;-86
2023/12/18 06:28:29;;;;;;;6.50;3.70;;;;;;;5.86;100.00;100824.19;4920361;29;20027;-86
2023/12/18 06:30:54;;;;;;;8.10;4.82;;;;;;;5.65;100.00;100789.88;4920229;29;20027;-86
2023/12/18 06:33:20;;;;;;;5.60;3.70;;;;;;;5.60;100.00;100772.69;4937473;29;20126;-86
2023/12/18 06:35:45;;;;;;;6.18;3.88;;;;;;;5.85;100.00;100809.53;4937370;29;20034;-86
2023/12/18 06:38:10;;;;;;;6.60;3.38;;;;;;;5.79;100.00;100804.41;4937196;29;20054;-86
2023/12/18 06:40:36;;;;;;;5.13;3.30;;;;;;;5.81;100.00;100815.59;4937550;29;20032;-86
2023/12/18 06:43:01;;;;;;;8.55;4.45;;;;;;;5.86;100.00;100819.00;4919874;29;20497;-86
2023/12/18 06:48:50;;;;;;;7.47;4.85;;;;;;;5.86;100.00;100825.03;4878506;29;20487;-85
2023/12/18 06:51:16;;;;;;;6.47;4.90;;;;;;;5.70;100.00;100802.78;4877678;29;20056;-85
2023/12/18 06:53:41;;;;;;;5.40;3.53;;;;;;;5.67;100.00;100800.19;4877990;29;20041;-85
2023/12/18 06:56:07;;;;;;;6.30;4.28;;;;;;;5.59;100.00;100789.91;4877705;29;20068;-85
2023/12/18 06:58:32;;;;;;;6.15;3.30;;;;;;;5.83;100.00;100819.03;4859073;29;20491;-85
2023/12/18 07:00:57;;;;;;;5.47;3.95;;;;;;;5.74;100.00;100794.13;4858887;29;20483;-85
2023/12/18 07:03:24;;;;;;;6.22;3.60;;;;;;;5.93;100.00;100828.44;4859063;29;20546;-86
2023/12/18 07:05:49;;;;;;;7.60;3.60;;;;;;;5.61;100.00;100774.41;4843526;29;20041;-85
2023/12/18 07:08:14;;;;;;;7.47;4.13;;;;;;;5.84;100.00;100802.66;4874229;29;20081;-86
2023/12/18 07:10:40;;;;;;;4.80;3.60;;;;;;;5.79;100.00;100783.72;4858940;29;20144;-85
2023/12/18 07:13:05;;;;;;;5.25;3.00;;;;;;;6.00;100.00;100814.59;4858828;29;20041;-85
2023/12/18 07:15:31;;;;;;;3.70;3.15;;;;;;;6.03;100.00;100816.31;4859120;29;20124;-85
2023/12/18 07:17:59;;;;;;;4.75;3.33;;;;;;;6.04;100.00;100815.44;4858505;29;20037;-85
2023/12/18 07:20:25;;;;;;;7.25;3.88;;;;;;;6.18;100.00;100842.00;4858858;29;20070;-85
2023/12/18 07:22:51;;;;;;;13.93;5.00;;;;;;;6.08;100.00;100822.28;4858821;29;20598;-85
2023/12/18 07:25:16;;;;;;;9.10;4.60;;;;;;;6.22;100.00;100841.13;4876230;29;20055;-85
2023/12/18 07:27:41;;;;;;;7.47;4.75;;;;;;;6.21;100.00;100831.66;4896395;29;20063;-85
2023/12/18 07:30:08;;;;;;;8.27;5.32;;;;;;;6.30;100.00;100836.72;4909644;29;20430;-85
2023/12/18 07:32:33;;;;;;;6.43;4.60;;;;;;;6.12;100.00;100809.31;4899014;29;20055;-85
2023/12/18 07:35:00;;;;;;;6.88;4.53;;;;;;;6.33;100.00;100834.13;4914405;29;20032;-85
2023/12/18 07:37:27;;;;;;;7.47;4.50;;;;;;;6.47;100.00;100845.16;4914895;29;20028;-85
2023/12/18 07:39:53;;;;;;;11.90;6.40;;;;;;;6.29;100.00;100803.13;4914473;29;20044;-85
2023/12/18 07:42:18;;;;;;;10.13;5.18;;;;;;;6.50;100.00;100821.00;4914474;29;20175;-85
2023/12/18 07:44:43;;;;;;;9.68;5.93;;;;;;;6.60;100.00;100821.72;4898714;29;20098;-85
2023/12/18 07:47:09;;;;;;;11.68;6.60;;;;;;;6.78;100.00;100815.47;4914641;29;20530;-85
2023/12/18 07:49:35;;;;;;;15.40;7.85;;;;;;;6.92;100.00;100817.03;4914457;29;20136;-85
2023/12/18 07:52:01;;;;;;;13.65;7.43;;;;;;;7.02;100.00;100827.25;4913761;29;20044;-86
2023/12/18 07:54:26;;;;;;;24.33;6.95;;;;;;;7.27;100.00;100854.56;4901193;29;20461;-85
2023/12/18 07:56:51;;;;;;;13.68;6.53;;;;;;;7.48;100.00;100859.44;4918869;29;20103;-86
2023/12/18 07:59:17;;;;;;;8.77;4.90;;;;;;;7.57;100.00;100861.03;4918547;29;20032;-86
2023/12/18 08:01:43;;;;;;;7.15;3.60;;;;;;;7.47;100.00;100828.34;4918755;29;20066;-86
2023/12/18 08:04:10;;;;;;;7.28;4.00;;;;;;;7.55;99.42;100830.84;4935711;29;20027;-85
2023/12/18 08:06:35;;;;;;;5.22;3.70;;;;;;;7.55;98.25;100826.50;4936127;29;20028;-85
2023/12/18 08:09:00;;;;;;;4.38;3.55;;;;;;;7.86;97.91;100870.09;4918762;29;20032;-86
2023/12/18 08:11:26;;;;;;;4.85;3.10;;;;;;;7.90;97.39;100853.59;4936017;29;20055;-85
2023/12/18 08:13:51;;;;;;;5.80;4.22;;;;;;;7.79;97.09;100839.94;4938050;29;20028;-86
2023/12/18 08:16:17;;;;;;;11.60;5.40;;;;;;;7.96;96.53;100869.94;4931867;29;20099;-86
2023/12/18 08:18:42;;;;;;;9.00;4.68;;;;;;;7.97;96.24;100863.00;4947464;29;20058;-85
2023/12/18 08:21:12;;;;;;;8.63;4.60;;;;;;;7.73;96.18;100827.94;4945643;29;20035;-86
2023/12/18 08:23:39;;;;;;;9.60;4.82;;;;;;;7.58;95.72;100799.66;4936583;29;20385;-85
2023/12/18 08:26:04;;;;;;;6.20;4.03;;;;;;;7.62;95.55;100817.72;4935400;29;20035;-85
2023/12/18 08:28:30;;;;;;;5.65;3.60;;;;;;;7.65;95.95;100815.09;4935504;29;20020;-86
2023/12/18 08:30:55;;;;;;;6.63;3.42;;;;;;;7.88;95.93;100866.63;4935637;29;20024;-86
2023/12/18 08:33:20;;;;;;;5.70;3.80;;;;;;;7.81;95.70;100859.81;4935360;29;20072;-85
2023/12/18 08:35:46;;;;;;;6.53;4.18;;;;;;;7.75;95.67;100855.59;4935685;29;20028;-85
2023/12/18 08:38:11;;;;;;;5.47;3.50;;;;;;;7.77;95.47;100863.31;4918067;29;20027;-85
2023/12/18 08:40:37;;;;;;;8.18;4.60;;;;;;;7.43;95.78;100803.34;4935267;29;20032;-85
2023/12/18 08:43:02;;;;;;;8.20;5.55;;;;;;;7.39;96.45;100837.97;4917866;29;20599;-85
2023/12/18 08:45:28;;;;;;;10.75;4.60;;;;;;;7.15;97.25;100818.44;4918378;29;20524;-85
2023/12/18 08:47:54;;;;;;;9.38;5.45;;;;;;;7.30;97.94;100851.06;4935254;29;20079;-85
2023/12/18 08:50:20;;;;;;;10.27;5.03;;;;;;;7.05;99.32;100822.03;4917918;29;20035;-85
2023/12/18 08:52:45;;;;;;;10.23;6.35;;;;;;;7.13;100.00;100870.28;4935486;29;20488;-86
2023/12/18 08:55:11;;;;;;;8.90;5.28;;;;;;;7.06;100.00;100871.22;4918062;29;20488;-85
2023/12/18 08:57:36;;;;;;;9.90;5.78;;;;;;;6.96;100.00;100843.75;4918063;29;20473;-85
2023/12/18 09:00:04;;;;;;;13.07;7.65;;;;;;;7.05;100.00;100863.50;4934836;29;20114;-85
2023/12/18 09:02:29;;;;;;;14.82;7.80;;;;;;;7.09;100.00;100868.63;4937327;29;20027;-85
2023/12/18 09:04:55;;;;;;;17.98;8.98;;;;;;;7.12;100.00;100871.19;4938914;29;20035;-85
2023/12/18 09:07:21;;;;;;;11.30;6.57;;;;;;;7.10;100.00;100874.66;4938803;29;20114;-86
2023/12/18 09:09:46;;;;;;;13.48;7.05;;;;;;;7.23;100.00;100895.19;4938974;29;20059;-85
2023/12/18 09:12:12;;;;;;;10.07;5.65;;;;;;;7.05;100.00;100868.69;4921274;29;20055;-85
2023/12/18 09:14:38;;;;;;;8.50;4.97;;;;;;;7.12;100.00;100881.53;4938955;29;20059;-86
2023/12/18 09:17:03;;;;;;;8.20;5.57;;;;;;;6.92;100.00;100840.34;4938550;29;20028;-85
2023/12/18 09:19:29;;;;;;;6.57;4.78;;;;;;;7.14;100.00;100878.91;4879426;29;20118;-85
2023/12/18 09:21:55;;;;;;;6.95;4.57;;;;;;;7.14;100.00;100887.53;4898255;29;20140;-86
2023/12/18 09:24:20;;;;;;;8.32;5.28;;;;;;;7.13;100.00;100892.75;4895255;29;20074;-84
2023/12/18 09:26:47;;;;;;;9.40;5.28;;;;;;;6.80;100.00;100850.84;4898675;29;20194;-86
2023/12/18 09:29:13;;;;;;;7.85;5.40;;;;;;;7.13;100.00;100880.66;4882534;29;20139;-86
2023/12/18 09:31:39;;;;;;;6.95;5.70;;;;;;;7.10;100.00;100859.09;4898432;29;20128;-85
2023/12/18 09:34:04;;;;;;;8.50;5.45;;;;;;;7.33;100.00;100890.78;4882209;29;20514;-86
2023/12/18 09:36:31;;;;;;;7.88;5.15;;;;;;;7.38;100.00;100877.75;4882414;29;20124;-86
2023/12/18 09:38:56;;;;;;;8.65;5.32;;;;;;;7.55;100.00;100886.13;4882406;29;20037;-85
2023/12/18 09:41:23;;;;;;;8.13;4.88;;;;;;;7.21;100.00;100824.41;4897840;29;20036;-86
2023/12/18 09:43:53;;;;;;;10.77;6.55;;;;;;;7.61;100.00;100888.63;4897971;29;20048;-86
2023/12/18 09:46:22;;;;;;;7.38;5.93;;;;;;;7.53;100.00;100864.53;4897938;29;20079;-85
2023/12/18 09:48:48;;;;;;;6.88;5.55;;;;;;;7.61;100.00;100872.22;4898237;29;20173;-85
2023/12/18 09:51:17;;;;;;;7.78;5.70;;;;;;;7.49;100.00;100852.50;4898301;29;20399;-85
2023/12/18 09:53:43;;;;;;;7.72;5.80;;;;;;;7.53;100.00;100861.94;4898235;29;20100;-85
2023/12/18 09:56:10;;;;;;;8.45;5.63;;;;;;;7.41;100.00;100839.66;4905044;29;20130;-85
2023/12/18 09:58:37;;;;;;;7.72;5.40;;;;;;;7.20;100.00;100804.53;4921296;29;20030;-85
2023/12/18 10:01:02;;;;;;;8.25;4.95;;;;;;;7.21;100.00;100798.50;4938021;29;20035;-85
2023/12/18 10:03:27;;;;;;;8.18;6.43;;;;;;;7.37;100.00;100817.25;4937576;29;20030;-84
2023/12/18 10:05:53;;;;;;;12.02;7.10;;;;;;;7.39;100.00;100825.03;4921323;29;20074;-85
2023/12/18 10:08:18;;;;;;;10.57;6.40;;;;;;;7.16;100.00;100783.88;4921084;29;20434;-85
2023/12/18 10:10:44;;;;;;;7.68;5.32;;;;;;;7.33;100.00;100799.19;4938244;29;20082;-85
2023/12/18 10:13:11;;;;;;;7.22;5.88;;;;;;;7.55;100.00;100823.06;4920577;29;20487;-85
2023/12/18 10:15:39;;;;;;;12.85;8.18;;;;;;;7.42;100.00;100805.09;4938279;29;20035;-85
2023/12/18 10:18:05;;;;;;;11.93;5.55;;;;;;;7.75;100.00;100854.69;4921098;29;20050;-85
2023/12/18 10:20:33;;;;;;;7.60;5.55;;;;;;;7.78;100.00;100851.22;4938000;29;20525;-85
2023/12/18 10:23:03;;;;;;;8.32;5.20;;;;;;;7.78;100.00;100840.84;4937693;29;20477;-84
2023/12/18 10:25:30;;;;;;;7.43;6.22;;;;;;;7.80;100.00;100834.75;4920829;29;20068;-85
2023/12/18 10:27:57;;;;;;;9.05;5.53;;;;;;;7.82;100.00;100825.19;4939203;29;20474;-84
2023/12/18 10:30:28;;;;;;;8.82;5.75;;;;;;;7.87;100.00;100822.53;4938606;29;20499;-84
2023/12/18 10:32:53;;;;;;;19.67;7.88;;;;;;;7.65;100.00;100780.53;4921029;29;20515;-85
2023/12/18 10:35:21;;;;;;;10.38;6.18;;;;;;;7.90;100.00;100822.47;4920789;29;20148;-85
2023/12/18 10:37:49;;;;;;;10.88;6.90;;;;;;;7.87;100.00;100813.00;4921537;29;20059;-84
2023/12/18 10:40:20;;;;;;;9.93;7.50;;;;;;;7.74;100.00;100782.97;4934679;29;20127;-85
2023/12/18 10:43:24;;;;;;;8.73;7.82;;;;;;;7.99;100.00;100828.34;4921381;29;20043;-84
2023/12/18 10:45:52;;;;;;;11.20;6.90;;;;;;;7.74;100.00;100798.53;4937107;29;20048;-83
2023/12/18 10:48:18;;;;;;;12.75;7.45;;;;;;;7.57;100.00;100769.44;4921107;29;20028;-85
2023/12/18 10:50:47;;;;;;;9.00;5.53;;;;;;;7.34;100.00;100724.00;4940507;29;20027;-84
2023/12/18 10:53:16;;;;;;;6.45;5.72;;;;;;;7.72;99.68;100784.75;4940597;29;20020;-85
2023/12/18 10:55:41;;;;;;;7.93;5.53;;;;;;;7.90;99.31;100814.69;4939760;29;20171;-85
2023/12/18 10:58:08;;;;;;;9.20;5.97;;;;;;;7.64;98.97;100771.06;4924346;29;20118;-85
2023/12/18 11:00:34;;;;;;;9.43;5.85;;;;;;;7.40;98.74;100707.50;4938370;29;20035;-85
2023/12/18 11:03:01;;;;;;;9.13;5.65;;;;;;;7.37;98.36;100689.41;4938025;29;20381;-85
2023/12/18 11:05:27;;;;;;;8.82;6.85;;;;;;;7.85;98.73;100783.66;4919743;29;20027;-84
2023/12/18 11:07:55;;;;;;;6.32;4.80;;;;;;;7.32;97.89;100694.66;4936895;29;20028;-85
2023/12/18 11:10:21;;;;;;;10.73;6.53;;;;;;;7.86;97.87;100755.97;4936508;29;20474;-86
2023/12/18 11:12:51;;;;;;;9.05;7.88;;;;;;;7.57;97.90;100715.00;4936815;29;20035;-85
2023/12/18 11:15:26;;;;;;;7.38;5.50;;;;;;;7.65;97.93;100728.69;4919309;29;20063;-85
2023/12/18 11:18:10;;;;;;;5.85;4.32;;;;;;;7.91;97.97;100780.09;4936651;29;20106;-85
2023/12/18 11:20:40;;;;;;;7.60;5.18;;;;;;;7.76;97.56;100752.69;4919559;29;20035;-85